createdAt,value
2022-10-11T00:01:38.320Z,7.78
2022-10-11T00:04:04.838Z,7.30
2022-10-11T00:06:31.320Z,7.33
2022-10-11T00:08:57.765Z,6.88
2022-10-11T00:11:24.202Z,7.25
2022-10-11T00:13:50.633Z,7.50
2022-10-11T00:16:17.045Z,8.05
2022-10-11T00:18:43.438Z,8.13
2022-10-11T00:21:12.857Z,7.68
2022-10-11T00:23:39.958Z,7.22
2022-10-11T00:26:08.293Z,6.78
2022-10-11T00:28:36.636Z,6.95
2022-10-11T00:31:07.609Z,6.87
2022-10-11T00:33:34.518Z,8.07
2022-10-11T00:36:01.210Z,6.97
2022-10-11T00:38:27.627Z,7.55
2022-10-11T00:40:54.018Z,7.43
2022-10-11T00:43:23.178Z,7.63
2022-10-11T00:45:57.719Z,7.78
2022-10-11T00:48:39.756Z,7.32
2022-10-11T00:51:15.448Z,8.32
2022-10-11T00:53:42.458Z,7.00
2022-10-11T00:56:24.807Z,7.10
2022-10-11T00:58:52.379Z,8.13
2022-10-11T01:01:18.916Z,6.85
2022-10-11T01:03:46.142Z,6.97
2022-10-11T01:06:12.609Z,6.85
2022-10-11T01:08:39.318Z,7.50
2022-10-11T01:11:06.401Z,8.20
2022-10-11T01:13:40.409Z,7.80
2022-10-11T01:16:15.743Z,7.90
2022-10-11T01:19:35.570Z,8.20
2022-10-11T01:22:14.137Z,7.50
2022-10-11T01:25:00.797Z,7.50
2022-10-11T01:27:37.857Z,7.50
2022-10-11T01:30:22.409Z,8.35
2022-10-11T01:33:20.419Z,7.75
2022-10-11T01:36:05.264Z,8.30
2022-10-11T01:38:44.758Z,8.07
2022-10-11T01:41:16.495Z,7.53
2022-10-11T01:43:44.020Z,7.78
2022-10-11T01:46:11.014Z,7.38
2022-10-11T01:48:55.017Z,7.50
2022-10-11T01:51:24.285Z,8.15
2022-10-11T01:54:09.419Z,7.72
2022-10-11T01:57:15.003Z,6.93
2022-10-11T02:00:03.017Z,6.90
2022-10-11T02:02:51.465Z,6.90
2022-10-11T02:05:43.974Z,6.53
2022-10-11T02:08:33.385Z,6.82
2022-10-11T02:11:08.734Z,7.82
2022-10-11T02:13:47.177Z,8.07
2022-10-11T02:16:18.746Z,7.33
2022-10-11T02:18:49.940Z,6.55
2022-10-11T02:21:20.166Z,6.95
2022-10-11T02:24:02.935Z,7.57
2022-10-11T02:26:31.993Z,8.20
2022-10-11T02:29:00.671Z,6.80
2022-10-11T02:31:30.075Z,7.35
2022-10-11T02:34:18.981Z,6.70
2022-10-11T02:37:02.822Z,7.85
2022-10-11T02:39:34.420Z,7.90
2022-10-11T02:42:04.741Z,8.97
2022-10-11T02:44:37.285Z,8.55
2022-10-11T02:47:04.838Z,8.88
2022-10-11T02:49:31.903Z,8.05
2022-10-11T02:51:58.863Z,6.93
2022-10-11T02:54:26.502Z,8.03
2022-10-11T02:56:52.963Z,7.55
2022-10-11T02:59:19.336Z,7.47
2022-10-11T03:01:45.744Z,7.25
2022-10-11T03:04:12.431Z,7.40
2022-10-11T03:06:38.845Z,7.60
2022-10-11T03:09:05.209Z,7.30
2022-10-11T03:11:31.606Z,6.60
2022-10-11T03:13:58.062Z,7.00
2022-10-11T03:16:24.521Z,7.18
2022-10-11T03:18:51.175Z,7.00
2022-10-11T03:21:18.544Z,7.53
2022-10-11T03:23:44.900Z,7.22
2022-10-11T03:26:11.264Z,7.80
2022-10-11T03:28:37.759Z,7.30
2022-10-11T03:31:04.199Z,6.93
2022-10-11T03:33:30.596Z,6.53
2022-10-11T03:35:57.009Z,6.25
2022-10-11T03:38:23.468Z,6.65
2022-10-11T03:40:49.861Z,6.85
2022-10-11T03:43:17.058Z,6.73
2022-10-11T03:45:43.777Z,6.15
2022-10-11T03:48:11.272Z,6.13
2022-10-11T03:50:38.329Z,6.55
2022-10-11T03:53:06.240Z,6.38
2022-10-11T03:55:32.714Z,5.83
2022-10-11T03:57:59.119Z,6.60
2022-10-11T04:00:25.549Z,5.90
2022-10-11T04:02:51.976Z,5.90
2022-10-11T04:05:18.455Z,6.15
2022-10-11T04:07:44.871Z,5.43
2022-10-11T04:10:11.316Z,6.82
2022-10-11T04:12:37.875Z,6.25
2022-10-11T04:15:05.913Z,6.05
2022-10-11T04:17:32.334Z,6.35
2022-10-11T04:19:58.692Z,6.27
2022-10-11T04:22:25.093Z,7.43
2022-10-11T04:24:51.468Z,7.50
2022-10-11T04:27:17.872Z,6.70
2022-10-11T04:29:44.282Z,6.70
2022-10-11T04:32:10.674Z,7.03
2022-10-11T04:34:37.725Z,6.93
2022-10-11T04:37:04.140Z,6.70
2022-10-11T04:39:30.603Z,7.30
2022-10-11T04:41:57.008Z,7.75
2022-10-11T04:44:23.424Z,8.00
2022-10-11T04:46:49.848Z,7.43
2022-10-11T04:49:16.305Z,7.20
2022-10-11T04:51:42.765Z,7.45
2022-10-11T04:54:09.188Z,7.45
2022-10-11T04:56:35.621Z,8.00
2022-10-11T04:59:02.050Z,7.05
2022-10-11T05:01:28.683Z,6.47
2022-10-11T05:03:55.053Z,7.70
2022-10-11T05:06:21.551Z,7.80
2022-10-11T05:08:47.909Z,7.57
2022-10-11T05:11:16.588Z,7.30
2022-10-11T05:13:44.377Z,7.00
2022-10-11T05:16:11.979Z,7.10
2022-10-11T05:18:39.900Z,6.95
2022-10-11T05:21:07.782Z,7.43
2022-10-11T05:23:35.798Z,7.72
2022-10-11T05:26:03.652Z,7.28
2022-10-11T05:28:30.694Z,6.78
2022-10-11T05:30:57.194Z,6.93
2022-10-11T05:33:23.773Z,7.73
2022-10-11T05:35:50.560Z,7.80
2022-10-11T05:38:17.382Z,6.70
2022-10-11T05:40:43.973Z,8.02
2022-10-11T05:43:10.422Z,6.97
2022-10-11T05:45:38.855Z,6.80
2022-10-11T05:48:05.578Z,8.00
2022-10-11T05:50:32.488Z,8.60
2022-10-11T05:52:58.915Z,8.98
2022-10-11T05:55:25.587Z,7.70
2022-10-11T05:57:56.557Z,8.47
2022-10-11T06:00:23.981Z,8.00
2022-10-11T06:02:50.545Z,8.40
2022-10-11T06:05:17.093Z,7.10
2022-10-11T06:07:43.785Z,8.93
2022-10-11T06:10:10.488Z,8.57
2022-10-11T06:12:36.858Z,8.77
2022-10-11T06:15:03.824Z,8.55
2022-10-11T06:17:30.276Z,8.75
2022-10-11T06:19:56.641Z,8.65
2022-10-11T06:22:23.066Z,8.07
2022-10-11T06:24:49.499Z,8.63
2022-10-11T06:27:15.885Z,8.77
2022-10-11T06:29:42.272Z,9.35
2022-10-11T06:32:08.706Z,8.75
2022-10-11T06:34:35.044Z,8.47
2022-10-11T06:37:01.442Z,9.00
2022-10-11T06:39:27.871Z,7.65
2022-10-11T06:41:54.278Z,8.75
2022-10-11T06:44:20.706Z,9.27
2022-10-11T06:46:47.125Z,9.37
2022-10-11T06:49:13.505Z,8.35
2022-10-11T06:51:39.998Z,8.70
2022-10-11T06:54:06.390Z,8.52
2022-10-11T06:56:32.863Z,8.52
2022-10-11T06:58:59.369Z,8.33
2022-10-11T07:01:27.248Z,8.02
2022-10-11T07:03:55.525Z,7.93
2022-10-11T07:06:25.240Z,8.30
2022-10-11T07:08:52.439Z,8.40
2022-10-11T07:11:21.435Z,8.13
2022-10-11T07:13:56.117Z,8.00
2022-10-11T07:16:23.328Z,6.40
2022-10-11T07:18:58.773Z,7.82
2022-10-11T07:21:27.746Z,7.32
2022-10-11T07:23:54.310Z,7.33
2022-10-11T07:26:20.739Z,7.05
2022-10-11T07:28:47.385Z,6.70
2022-10-11T07:31:20.294Z,6.90
2022-10-11T07:33:47.029Z,6.70
2022-10-11T07:36:15.570Z,6.40
2022-10-11T07:38:43.873Z,6.35
2022-10-11T07:41:11.181Z,6.60
2022-10-11T07:43:38.541Z,6.07
2022-10-11T07:46:06.009Z,6.28
2022-10-11T07:48:36.308Z,6.23
2022-10-11T07:51:06.771Z,5.80
2022-10-11T07:53:47.632Z,5.40
2022-10-11T07:56:17.200Z,5.40
2022-10-11T07:58:44.385Z,5.47
2022-10-11T08:01:11.618Z,5.30
2022-10-11T08:03:38.523Z,4.93
2022-10-11T08:06:08.255Z,4.60
2022-10-11T08:08:36.118Z,4.22
2022-10-11T08:11:02.732Z,4.30
2022-10-11T08:13:29.170Z,4.63
2022-10-11T08:15:56.114Z,4.30
2022-10-11T08:18:22.615Z,4.35
2022-10-11T08:20:49.092Z,4.53
2022-10-11T08:23:16.606Z,4.40
2022-10-11T08:25:47.567Z,4.13
2022-10-11T08:28:14.358Z,5.60
2022-10-11T08:30:40.826Z,4.72
2022-10-11T08:33:08.680Z,4.30
2022-10-11T08:35:36.149Z,4.00
2022-10-11T08:38:02.823Z,3.80
2022-10-11T08:40:34.278Z,4.30
2022-10-11T08:43:08.242Z,3.83
2022-10-11T08:45:49.063Z,4.32
2022-10-11T08:48:25.688Z,4.10
2022-10-11T08:50:54.366Z,3.93
2022-10-11T08:53:42.640Z,4.07
2022-10-11T08:56:13.467Z,3.92
2022-10-11T08:58:46.510Z,3.72
2022-10-11T09:01:22.029Z,3.63
2022-10-11T09:03:49.302Z,3.77
2022-10-11T09:06:37.063Z,3.50
2022-10-11T09:09:21.297Z,3.60
2022-10-11T09:11:56.869Z,3.58
2022-10-11T09:14:29.322Z,3.28
2022-10-11T09:17:35.365Z,3.53
2022-10-11T09:20:23.199Z,3.88
2022-10-11T09:23:07.953Z,2.97
2022-10-11T09:25:43.351Z,2.65
2022-10-11T09:28:21.899Z,2.38
2022-10-11T09:30:51.280Z,2.47
2022-10-11T09:33:36.379Z,2.55
2022-10-11T09:36:30.215Z,2.40
2022-10-11T09:39:06.780Z,2.20
2022-10-11T09:41:41.265Z,2.45
2022-10-11T09:44:08.162Z,2.37
2022-10-11T09:46:34.510Z,2.50
2022-10-11T09:49:03.996Z,2.53
2022-10-11T09:51:31.071Z,2.60
2022-10-11T09:54:00.652Z,2.30
2022-10-11T09:56:29.892Z,2.50
2022-10-11T09:59:08.502Z,2.30
2022-10-11T10:01:35.840Z,2.38
2022-10-11T10:04:12.286Z,2.33
2022-10-11T10:06:39.529Z,2.38
2022-10-11T10:09:20.338Z,2.60
2022-10-11T10:11:47.110Z,2.10
2022-10-11T10:14:29.181Z,2.30
2022-10-11T10:17:05.448Z,2.08
2022-10-11T10:19:53.887Z,1.83
2022-10-11T10:22:38.361Z,2.20
2022-10-11T10:25:06.214Z,1.90
2022-10-11T10:27:32.701Z,1.77
2022-10-11T10:30:07.859Z,2.30
2022-10-11T10:32:48.646Z,1.60
2022-10-11T10:35:51.133Z,1.80
2022-10-11T10:38:37.211Z,1.83
2022-10-11T10:41:11.531Z,1.60
2022-10-11T10:43:39.971Z,1.98
2022-10-11T10:46:06.620Z,1.88
2022-10-11T10:49:28.297Z,2.17
2022-10-11T10:52:06.747Z,1.73
2022-10-11T10:54:56.540Z,1.58
2022-10-11T10:57:53.414Z,1.65
2022-10-11T11:00:22.385Z,1.65
2022-10-11T11:02:57.302Z,1.87
2022-10-11T11:05:40.241Z,2.13
2022-10-11T11:08:40.653Z,1.50
2022-10-11T11:11:35.082Z,1.55
2022-10-11T11:14:14.649Z,1.50
2022-10-11T11:16:49.056Z,2.20
2022-10-11T11:19:15.373Z,1.60
2022-10-11T11:21:57.394Z,1.70
2022-10-11T11:24:23.718Z,2.03
2022-10-11T11:26:55.920Z,2.40
2022-10-11T11:29:55.563Z,1.70
2022-10-11T11:32:45.839Z,1.60
2022-10-11T11:35:28.472Z,1.38
2022-10-11T11:38:06.326Z,1.30
2022-10-11T11:40:39.396Z,1.40
2022-10-11T11:43:22.597Z,1.23
2022-10-11T11:45:56.393Z,1.38
2022-10-11T11:48:25.311Z,1.50
2022-10-11T11:51:08.903Z,1.50
2022-10-11T11:54:02.040Z,1.55
2022-10-11T11:56:46.466Z,1.60
2022-10-11T11:59:35.914Z,1.27
2022-10-11T12:02:21.199Z,1.38
2022-10-11T12:04:49.478Z,1.20
2022-10-11T12:07:19.061Z,1.40
2022-10-11T12:09:47.818Z,1.23
2022-10-11T12:12:31.889Z,1.20
2022-10-11T12:15:18.446Z,1.40
2022-10-11T12:17:56.678Z,1.30
2022-10-11T12:20:36.258Z,1.33
2022-10-11T12:23:25.260Z,1.60
2022-10-11T12:26:28.794Z,1.40
2022-10-11T12:29:16.825Z,1.30
2022-10-11T12:31:46.210Z,1.40
2022-10-11T12:34:20.243Z,1.50
2022-10-11T12:36:49.187Z,1.40
2022-10-11T12:39:18.617Z,1.45
2022-10-11T12:41:47.988Z,1.50
2022-10-11T12:44:29.791Z,1.52
2022-10-11T12:46:56.403Z,1.30
2022-10-11T12:49:31.954Z,1.60
2022-10-11T12:52:02.471Z,1.40
2022-10-11T12:54:53.321Z,1.67
2022-10-11T12:57:40.472Z,1.60
2022-10-11T13:00:24.949Z,1.98
2022-10-11T13:02:51.622Z,1.60
2022-10-11T13:05:24.106Z,1.63
2022-10-11T13:07:53.158Z,1.45
2022-10-11T13:10:25.963Z,1.25
2022-10-11T13:12:54.618Z,1.73
2022-10-11T13:15:22.627Z,1.30
2022-10-11T13:17:49.371Z,1.50
2022-10-11T13:20:18.471Z,1.20
2022-10-11T13:22:48.049Z,1.60
2022-10-11T13:25:18.152Z,1.60
2022-10-11T13:27:45.455Z,1.93
2022-10-11T13:30:19.451Z,1.58
2022-10-11T13:32:46.090Z,1.40
2022-10-11T13:35:48.335Z,1.40
2022-10-11T13:38:22.040Z,1.40
2022-10-11T13:40:51.126Z,1.53
2022-10-11T13:43:22.234Z,1.45
2022-10-11T13:45:48.785Z,1.60
2022-10-11T13:48:16.532Z,1.50
2022-10-11T13:50:43.175Z,1.40
2022-10-11T13:53:09.508Z,1.70
2022-10-11T13:55:46.856Z,1.40
2022-10-11T13:58:28.511Z,1.27
2022-10-11T14:00:57.584Z,1.52
2022-10-11T14:03:35.567Z,1.50
2022-10-11T14:06:02.198Z,1.57
2022-10-11T14:08:39.574Z,1.40
2022-10-11T14:11:07.546Z,1.52
2022-10-11T14:13:46.228Z,1.33
2022-10-11T14:16:32.887Z,1.33
2022-10-11T14:18:59.260Z,1.57
2022-10-11T14:21:28.897Z,1.55
2022-10-11T14:24:03.506Z,1.45
2022-10-11T14:26:39.570Z,1.50
2022-10-11T14:29:12.098Z,1.60
2022-10-11T14:31:42.147Z,1.70
2022-10-11T14:34:17.427Z,1.45
2022-10-11T14:36:43.842Z,1.50
2022-10-11T14:39:14.473Z,1.77
2022-10-11T14:41:40.951Z,1.50
2022-10-11T14:44:07.482Z,1.70
2022-10-11T14:46:34.459Z,1.80
2022-10-11T14:49:00.855Z,1.50
2022-10-11T14:51:34.321Z,1.67
2022-10-11T14:54:00.768Z,1.38
2022-10-11T14:56:27.234Z,1.40
2022-10-11T14:58:53.775Z,1.60
2022-10-11T15:01:20.234Z,2.22
2022-10-11T15:03:46.746Z,2.05
2022-10-11T15:06:25.234Z,2.10
2022-10-11T15:08:51.754Z,1.73
2022-10-11T15:11:20.223Z,2.00
2022-10-11T15:13:47.227Z,1.77
2022-10-11T15:16:16.230Z,1.75
2022-10-11T15:18:43.454Z,2.00
2022-10-11T15:21:13.930Z,2.20
2022-10-11T15:23:40.358Z,1.90
2022-10-11T15:26:07.300Z,2.10
2022-10-11T15:28:34.056Z,2.17
2022-10-11T15:31:00.719Z,2.42
2022-10-11T15:33:27.117Z,2.10
2022-10-11T15:35:53.562Z,2.20
2022-10-11T15:38:23.130Z,1.88
2022-10-11T15:40:50.112Z,1.95
2022-10-11T15:43:20.776Z,1.90
2022-10-11T15:45:50.091Z,2.07
2022-10-11T15:48:18.245Z,2.60
2022-10-11T15:50:45.497Z,2.60
2022-10-11T15:53:14.365Z,2.88
2022-10-11T15:55:46.455Z,3.50
2022-10-11T15:58:22.501Z,2.53
2022-10-11T16:00:52.426Z,3.38
2022-10-11T16:03:18.819Z,2.90
2022-10-11T16:05:45.247Z,3.03
2022-10-11T16:08:12.179Z,3.05
2022-10-11T16:10:39.422Z,3.57
2022-10-11T16:13:06.147Z,2.90
2022-10-11T16:15:32.662Z,2.97
2022-10-11T16:17:59.080Z,3.58
2022-10-11T16:20:25.550Z,3.35
2022-10-11T16:22:53.787Z,3.67
2022-10-11T16:25:20.902Z,3.70
2022-10-11T16:27:47.355Z,4.28
2022-10-11T16:30:15.556Z,3.65
2022-10-11T16:32:42.615Z,4.30
2022-10-11T16:35:10.968Z,4.37
2022-10-11T16:37:37.416Z,3.83
2022-10-11T16:40:06.070Z,3.97
2022-10-11T16:42:35.316Z,4.00
2022-10-11T16:45:01.739Z,4.38
2022-10-11T16:47:28.105Z,3.63
2022-10-11T16:49:54.485Z,3.80
2022-10-11T16:52:20.888Z,4.00
2022-10-11T16:54:47.818Z,3.70
2022-10-11T16:57:16.390Z,4.30
2022-10-11T16:59:42.920Z,3.93
2022-10-11T17:02:15.754Z,4.50
2022-10-11T17:04:42.311Z,5.50
2022-10-11T17:07:08.742Z,5.10
2022-10-11T17:09:35.305Z,5.70
2022-10-11T17:12:02.430Z,7.57
2022-10-11T17:14:28.874Z,7.70
2022-10-11T17:16:55.324Z,9.40
2022-10-11T17:19:21.726Z,9.77
2022-10-11T17:21:48.154Z,10.07
2022-10-11T17:24:14.578Z,10.80
2022-10-11T17:26:40.978Z,10.13
2022-10-11T17:29:07.438Z,11.48
2022-10-11T17:31:33.821Z,12.20
2022-10-11T17:34:00.919Z,13.10
2022-10-11T17:36:30.801Z,13.53
2022-10-11T17:38:59.113Z,14.18
2022-10-11T17:41:30.907Z,12.48
2022-10-11T17:43:58.370Z,12.10
2022-10-11T17:46:24.809Z,13.15
2022-10-11T17:48:52.735Z,14.27
2022-10-11T17:51:19.838Z,13.65
2022-10-11T17:53:47.515Z,21.15
2022-10-11T17:56:25.261Z,21.27
2022-10-11T17:58:55.855Z,45.25
2022-10-11T18:01:25.420Z,27.10
2022-10-11T18:03:57.637Z,23.45
2022-10-11T18:06:26.131Z,18.35
2022-10-11T18:08:52.614Z,15.82
2022-10-11T18:11:19.889Z,15.77
2022-10-11T18:13:51.611Z,15.37
2022-10-11T18:16:20.869Z,15.90
2022-10-11T18:18:47.500Z,15.55
2022-10-11T18:21:14.370Z,15.77
2022-10-11T18:23:40.761Z,16.83
2022-10-11T18:26:16.656Z,18.47
2022-10-11T18:28:44.145Z,18.95
2022-10-11T18:31:14.713Z,19.52
2022-10-11T18:33:41.710Z,18.63
2022-10-11T18:36:09.194Z,17.50
2022-10-11T18:38:36.750Z,16.67
2022-10-11T18:41:08.252Z,16.95
2022-10-11T18:43:35.432Z,16.83
2022-10-11T18:46:14.971Z,16.33
2022-10-11T18:48:45.823Z,14.93
2022-10-11T18:51:20.131Z,16.60
2022-10-11T18:53:47.874Z,15.38
2022-10-11T18:56:16.722Z,14.15
2022-10-11T18:58:44.173Z,14.32
2022-10-11T19:01:16.738Z,14.85
2022-10-11T19:03:47.919Z,13.93
2022-10-11T19:06:17.029Z,13.80
2022-10-11T19:08:49.430Z,14.95
2022-10-11T19:11:17.080Z,14.40
2022-10-11T19:13:43.805Z,14.75
2022-10-11T19:16:13.607Z,16.17
2022-10-11T19:18:44.192Z,15.65
2022-10-11T19:21:13.017Z,15.88
2022-10-11T19:23:42.346Z,15.48
2022-10-11T19:26:17.455Z,16.17
2022-10-11T19:28:44.319Z,16.30
2022-10-11T19:31:13.485Z,17.00
2022-10-11T19:33:39.929Z,15.90
2022-10-11T19:36:06.788Z,15.90
2022-10-11T19:38:35.152Z,16.80
2022-10-11T19:41:03.026Z,15.90
2022-10-11T19:43:29.532Z,16.98
2022-10-11T19:46:04.289Z,17.30
2022-10-11T19:48:31.657Z,16.75
2022-10-11T19:51:06.665Z,16.40
2022-10-11T19:53:33.195Z,15.93
2022-10-11T19:56:04.387Z,16.20
2022-10-11T19:58:31.131Z,16.65
2022-10-11T20:01:06.209Z,16.60
2022-10-11T20:03:33.322Z,16.92
2022-10-11T20:06:00.709Z,16.93
2022-10-11T20:08:28.048Z,18.45
2022-10-11T20:10:55.021Z,17.17
2022-10-11T20:13:21.523Z,17.55
2022-10-11T20:15:48.018Z,18.10
2022-10-11T20:18:14.418Z,19.63
2022-10-11T20:20:51.496Z,19.25
2022-10-11T20:23:18.405Z,17.90
2022-10-11T20:25:45.425Z,17.40
2022-10-11T20:28:12.544Z,17.55
2022-10-11T20:30:42.979Z,19.23
2022-10-11T20:33:09.451Z,18.25
2022-10-11T20:35:35.875Z,18.77
2022-10-11T20:38:02.298Z,18.08
2022-10-11T20:40:28.682Z,20.00
2022-10-11T20:42:55.082Z,22.80
2022-10-11T20:45:22.322Z,24.15
2022-10-11T20:47:48.763Z,22.25
2022-10-11T20:50:18.446Z,19.45
2022-10-11T20:52:47.589Z,19.85
2022-10-11T20:55:13.957Z,20.63
2022-10-11T20:57:40.325Z,18.65
2022-10-11T21:00:07.539Z,19.48
2022-10-11T21:02:34.140Z,20.20
2022-10-11T21:05:00.909Z,21.55
2022-10-11T21:07:27.279Z,20.70
2022-10-11T21:09:53.710Z,19.88
2022-10-11T21:12:20.108Z,20.00
2022-10-11T21:14:46.519Z,20.15
2022-10-11T21:17:12.926Z,20.63
2022-10-11T21:19:39.321Z,19.70
2022-10-11T21:22:05.705Z,19.75
2022-10-11T21:24:32.178Z,20.50
2022-10-11T21:27:00.882Z,21.30
2022-10-11T21:29:27.484Z,21.40
2022-10-11T21:31:53.853Z,21.40
2022-10-11T21:34:20.277Z,19.33
2022-10-11T21:36:46.663Z,18.25
2022-10-11T21:39:13.088Z,17.80
2022-10-11T21:41:39.557Z,20.45
2022-10-11T21:44:05.934Z,19.07
2022-10-11T21:47:01.090Z,21.63
2022-10-11T21:49:19.337Z,20.23
2022-10-11T21:51:45.817Z,18.95
2022-10-11T21:54:12.222Z,16.90
2022-10-11T21:56:38.601Z,16.47
2022-10-11T21:59:07.921Z,19.05
2022-10-11T22:01:37.630Z,17.80
2022-10-11T22:04:04.830Z,18.15
2022-10-11T22:06:31.448Z,17.30
2022-10-11T22:08:57.800Z,17.27
2022-10-11T22:11:24.191Z,17.40
2022-10-11T22:13:50.610Z,17.65
2022-10-11T22:16:17.003Z,18.05
2022-10-11T22:18:43.372Z,17.92
2022-10-11T22:21:13.002Z,16.23
2022-10-11T22:23:44.715Z,16.88
2022-10-11T22:26:14.096Z,15.27
2022-10-11T22:28:41.006Z,14.98
2022-10-11T22:31:09.634Z,14.48
2022-10-11T22:33:36.622Z,15.97
2022-10-11T22:36:06.353Z,17.55
2022-10-11T22:38:34.917Z,18.02
2022-10-11T22:41:01.305Z,17.73
2022-10-11T22:43:27.919Z,18.58
2022-10-11T22:45:54.351Z,17.23
2022-10-11T22:48:20.783Z,16.90
2022-10-11T22:50:47.349Z,18.25
2022-10-11T22:53:14.569Z,19.23
2022-10-11T22:55:41.114Z,18.40
2022-10-11T22:58:07.876Z,19.80
2022-10-11T23:00:34.865Z,19.10
2022-10-11T23:03:01.228Z,18.88
2022-10-11T23:05:27.705Z,18.48
2022-10-11T23:07:54.255Z,20.35
2022-10-11T23:10:20.775Z,18.50
2022-10-11T23:12:47.179Z,17.52
2022-10-11T23:15:13.636Z,16.65
2022-10-11T23:17:40.143Z,18.63
2022-10-11T23:20:07.084Z,16.42
2022-10-11T23:22:33.477Z,18.70
2022-10-11T23:24:59.920Z,18.55
2022-10-11T23:27:26.335Z,17.02
2022-10-11T23:29:52.682Z,17.33
2022-10-11T23:32:19.058Z,17.35
2022-10-11T23:34:45.424Z,16.50
2022-10-11T23:37:11.805Z,17.30
2022-10-11T23:39:38.221Z,17.25
2022-10-11T23:42:04.724Z,16.25
2022-10-11T23:44:31.112Z,17.15
2022-10-11T23:46:57.505Z,16.63
2022-10-11T23:49:23.945Z,16.30
2022-10-11T23:51:50.357Z,16.60
2022-10-11T23:54:16.727Z,13.80
2022-10-11T23:56:43.107Z,13.10
2022-10-11T23:59:09.528Z,12.83
